Time;durP1;ratioP1;P1;durP2;ratioP2;P2;SDS_P1;SDS_P2;PMS_P1;PMS_P2;Temp;Humidity;BMP_temperature;BMP_pressure;BME280_temperature;BME280_humidity;BME280_pressure;Samples;Min_cycle;Max_cycle;Signal;HPM_P1;HPM_P2
2023/05/21 00:02:23;;;;;;;;;;;;;;;11.86;100.00;95787.75;5030414;28;19925;-83
2023/05/21 00:04:50;;;;;;;;;;;;;;;11.89;100.00;95779.16;5028063;28;19925;-83
2023/05/21 00:07:17;;;;;;;;;;;;;;;11.89;100.00;95795.38;5029343;28;19931;-83
2023/05/21 00:09:44;;;;;;;;;;;;;;;11.90;100.00;95778.09;5030345;28;19925;-83
2023/05/21 00:12:12;;;;;;;;;;;;;;;11.90;100.00;95769.97;5032312;28;19975;-83
2023/05/21 00:14:38;;;;;;;;;;;;;;;11.86;100.00;95774.22;5028047;28;20012;-82
2023/05/21 00:17:05;;;;;;;;;;;;;;;11.85;100.00;95780.72;5025500;28;19937;-83
2023/05/21 00:19:32;;;;;;;;;;;;;;;11.88;100.00;95777.50;5029245;28;19925;-83
2023/05/21 00:22:01;;;;;;;;;;;;;;;11.88;100.00;95769.41;5042622;28;19929;-83
2023/05/21 00:24:28;;;;;;;;;;;;;;;11.81;100.00;95757.94;5044885;28;19933;-83
2023/05/21 00:26:54;;;;;;;;;;;;;;;11.76;100.00;95760.56;5029670;28;19957;-83
2023/05/21 00:29:23;;;;;;;;;;;;;;;11.79;100.00;95757.38;5042136;28;19929;-83
2023/05/21 00:31:51;;;;;;;;;;;;;;;11.79;100.00;95760.09;5029804;28;19925;-83
2023/05/21 00:34:17;;;;;;;;;;;;;;;11.80;100.00;95748.19;5029006;28;19972;-83
2023/05/21 00:36:45;;;;;;;;;;;;;;;11.83;100.00;95752.25;5025515;28;19931;-83
2023/05/21 00:39:12;;;;;;;;;;;;;;;11.79;100.00;95746.56;5025568;28;20028;-83
2023/05/21 00:41:41;;;;;;;;;;;;;;;11.80;100.00;95740.09;5028809;28;19929;-83
2023/05/21 00:44:08;;;;;;;;;;;;;;;11.78;100.00;95736.81;5046863;28;20011;-82
2023/05/21 00:46:36;;;;;;;;;;;;;;;11.80;100.00;95736.56;5027064;28;19925;-83
2023/05/21 00:49:04;;;;;;;;;;;;;;;11.77;100.00;95735.16;5040266;28;19926;-83
2023/05/21 00:51:31;;;;;;;;;;;;;;;11.81;100.00;95730.09;5028330;28;19931;-83
2023/05/21 00:53:58;;;;;;;;;;;;;;;11.79;100.00;95733.03;5043008;28;19932;-83
2023/05/21 00:56:26;;;;;;;;;;;;;;;11.80;100.00;95740.09;5017837;28;20023;-83
2023/05/21 00:58:54;;;;;;;;;;;;;;;11.89;100.00;95740.47;5030196;28;20055;-83
2023/05/21 01:01:24;;;;;;;;;;;;;;;11.79;100.00;95738.44;5036610;28;20102;-83
2023/05/21 01:03:53;;;;;;;;;;;;;;;11.77;100.00;95731.66;5037734;28;19925;-83
2023/05/21 01:06:20;;;;;;;;;;;;;;;11.78;100.00;95728.69;5032950;28;19944;-82
2023/05/21 01:08:47;;;;;;;;;;;;;;;11.71;100.00;95731.56;5033695;28;19940;-82
2023/05/21 01:11:15;;;;;;;;;;;;;;;11.68;100.00;95729.34;5026958;28;19983;-83
2023/05/21 01:13:42;;;;;;;;;;;;;;;11.67;100.00;95729.59;5040809;28;19972;-83
2023/05/21 01:16:09;;;;;;;;;;;;;;;11.65;100.00;95737.97;5030949;28;19975;-83
2023/05/21 01:18:37;;;;;;;;;;;;;;;11.69;100.00;95732.88;5036860;28;19934;-83
2023/05/21 01:21:08;;;;;;;;;;;;;;;11.67;100.00;95732.31;5041008;28;19971;-82
2023/05/21 01:23:37;;;;;;;;;;;;;;;11.66;100.00;95734.19;5028012;28;19968;-83
2023/05/21 01:26:06;;;;;;;;;;;;;;;11.68;100.00;95736.66;5023238;28;19925;-83
2023/05/21 01:28:33;;;;;;;;;;;;;;;11.69;100.00;95727.47;5043320;28;20024;-83
2023/05/21 01:31:05;;;;;;;;;;;;;;;11.70;100.00;95729.09;5042015;28;19959;-83
2023/05/21 01:33:38;;;;;;;;;;;;;;;11.71;100.00;95731.56;5027652;28;19929;-83
2023/05/21 01:36:09;;;;;;;;;;;;;;;11.65;100.00;95734.47;5039593;28;20559;-83
2023/05/21 01:38:41;;;;;;;;;;;;;;;11.68;100.00;95731.25;5028497;28;19925;-83
2023/05/21 01:41:10;;;;;;;;;;;;;;;11.66;100.00;95723.38;5024698;28;19930;-83
2023/05/21 01:43:38;;;;;;;;;;;;;;;11.64;100.00;95717.44;5019488;28;19929;-83
2023/05/21 01:46:05;;;;;;;;;;;;;;;11.64;100.00;95724.72;5019940;28;19932;-83
2023/05/21 01:48:34;;;;;;;;;;;;;;;11.66;100.00;95717.97;5024323;28;19929;-83
2023/05/21 01:51:02;;;;;;;;;;;;;;;11.65;100.00;95712.84;5011245;28;20003;-83
2023/05/21 01:53:29;;;;;;;;;;;;;;;11.64;100.00;95708.50;5043827;28;19968;-83
2023/05/21 01:55:58;;;;;;;;;;;;;;;11.65;100.00;95704.72;5045232;28;19925;-83
2023/05/21 01:58:24;;;;;;;;;;;;;;;11.62;100.00;95711.44;5039782;28;19926;-83
2023/05/21 02:00:51;;;;;;;;;;;;;;;11.62;100.00;95699.81;5041340;28;19979;-83
2023/05/21 02:03:19;;;;;;;;;;;;;;;11.61;100.00;95708.97;5021310;28;19948;-83
2023/05/21 02:05:46;;;;;;;;;;;;;;;11.58;100.00;95707.59;5022395;28;19933;-82
2023/05/21 02:08:14;;;;;;;;;;;;;;;11.62;100.00;95707.91;5044264;28;19936;-83
2023/05/21 02:10:41;;;;;;;;;;;;;;;11.57;100.00;95705.16;5020830;28;19925;-83
2023/05/21 02:13:09;;;;;;;;;;;;;;;11.62;100.00;95705.22;5025520;28;19936;-83
2023/05/21 02:15:35;;;;;;;;;;;;;;;11.57;100.00;95705.97;5011715;28;20020;-83
2023/05/21 02:18:03;;;;;;;;;;;;;;;11.56;100.00;95707.06;5035388;28;19925;-84
2023/05/21 02:20:30;;;;;;;;;;;;;;;11.59;100.00;95714.63;5029730;28;19971;-83
2023/05/21 02:22:56;;;;;;;;;;;;;;;11.59;100.00;95705.72;5031736;28;19929;-82
2023/05/21 02:25:23;;;;;;;;;;;;;;;11.60;100.00;95707.34;5024961;28;19948;-83
2023/05/21 02:27:52;;;;;;;;;;;;;;;11.59;100.00;95716.53;5027496;28;20013;-83
2023/05/21 02:30:20;;;;;;;;;;;;;;;11.45;100.00;95717.97;5038973;28;19956;-83
2023/05/21 02:32:49;;;;;;;;;;;;;;;11.40;100.00;95713.31;5030515;28;19928;-83
2023/05/21 02:35:16;;;;;;;;;;;;;;;11.37;100.00;95721.94;5028193;28;19925;-83
2023/05/21 02:37:43;;;;;;;;;;;;;;;11.35;100.00;95716.78;5022696;28;19968;-83
2023/05/21 02:40:10;;;;;;;;;;;;;;;11.30;100.00;95718.59;5026428;28;19926;-83
2023/05/21 02:42:38;;;;;;;;;;;;;;;11.27;100.00;95714.50;5024544;28;19932;-82
2023/05/21 02:45:06;;;;;;;;;;;;;;;11.23;100.00;95721.47;5037043;28;19968;-83
2023/05/21 02:47:34;;;;;;;;;;;;;;;11.21;100.00;95715.50;5026102;28;19933;-83
2023/05/21 02:50:01;;;;;;;;;;;;;;;11.18;100.00;95717.88;5042626;28;19925;-83
2023/05/21 02:52:29;;;;;;;;;;;;;;;11.19;100.00;95712.25;5031132;28;19975;-83
2023/05/21 02:54:56;;;;;;;;;;;;;;;11.17;100.00;95724.34;5021356;28;19941;-83
2023/05/21 02:57:23;;;;;;;;;;;;;;;11.14;100.00;95722.97;5025833;28;19925;-83
2023/05/21 02:59:51;;;;;;;;;;;;;;;11.15;100.00;95719.19;5039031;28;19929;-83
2023/05/21 03:02:18;;;;;;;;;;;;;;;11.11;100.00;95718.06;5020198;28;19925;-83
2023/05/21 03:04:46;;;;;;;;;;;;;;;11.10;100.00;95724.53;5016814;28;19933;-83
2023/05/21 03:07:13;;;;;;;;;;;;;;;11.08;100.00;95721.25;5035010;28;19932;-82
2023/05/21 03:09:41;;;;;;;;;;;;;;;11.07;100.00;95719.63;5022769;28;19948;-83
2023/05/21 03:12:08;;;;;;;;;;;;;;;11.07;100.00;95735.81;5024013;28;19941;-83
2023/05/21 03:14:35;;;;;;;;;;;;;;;11.07;100.00;95730.44;5028999;28;19983;-82
2023/05/21 03:17:04;;;;;;;;;;;;;;;11.02;100.00;95737.66;5023915;28;19932;-83
2023/05/21 03:19:33;;;;;;;;;;;;;;;11.02;100.00;95741.16;5028114;28;19925;-82
2023/05/21 03:22:03;;;;;;;;;;;;;;;11.05;100.00;95743.38;5044508;28;19979;-82
2023/05/21 03:24:31;;;;;;;;;;;;;;;11.06;100.00;95736.88;5030198;28;19933;-83
2023/05/21 03:27:00;;;;;;;;;;;;;;;11.03;100.00;95729.31;5044407;28;19944;-84
2023/05/21 03:29:27;;;;;;;;;;;;;;;11.02;100.00;95722.25;5048692;28;20015;-83
2023/05/21 03:31:55;;;;;;;;;;;;;;;10.99;100.00;95733.53;5027653;28;20016;-82
2023/05/21 03:34:22;;;;;;;;;;;;;;;10.98;100.00;95726.50;5029008;28;20028;-83
2023/05/21 03:36:50;;;;;;;;;;;;;;;10.95;100.00;95725.13;5041904;28;19929;-83
2023/05/21 03:39:19;;;;;;;;;;;;;;;10.97;100.00;95736.50;5027707;28;19925;-84
2023/05/21 03:41:46;;;;;;;;;;;;;;;10.96;100.00;95736.75;5036720;28;19926;-83
2023/05/21 03:44:21;;;;;;;;;;;;;;;10.91;100.00;95732.09;5034322;28;19932;-83
2023/05/21 03:46:53;;;;;;;;;;;;;;;10.89;100.00;95738.78;5047625;28;19935;-83
2023/05/21 03:49:26;;;;;;;;;;;;;;;10.89;100.00;95733.38;5030041;28;19925;-83
2023/05/21 03:51:55;;;;;;;;;;;;;;;10.90;100.00;95740.44;5029397;28;20011;-83
2023/05/21 03:54:25;;;;;;;;;;;;;;;10.81;100.00;95741.91;5040087;28;19925;-83
2023/05/21 03:56:55;;;;;;;;;;;;;;;10.80;100.00;95735.69;5032405;28;20149;-83
2023/05/21 03:59:23;;;;;;;;;;;;;;;10.84;100.00;95746.81;5029985;28;19963;-83
2023/05/21 04:01:50;;;;;;;;;;;;;;;10.81;100.00;95747.31;5035413;28;20031;-83
2023/05/21 04:04:17;;;;;;;;;;;;;;;10.79;100.00;95752.97;5031762;28;19925;-83
2023/05/21 04:06:44;;;;;;;;;;;;;;;10.77;100.00;95736.19;5044575;28;19925;-83
2023/05/21 04:09:12;;;;;;;;;;;;;;;10.80;100.00;95751.09;5026355;28;19926;-83
2023/05/21 04:11:40;;;;;;;;;;;;;;;10.78;100.00;95748.63;5043211;28;19989;-84
2023/05/21 04:14:07;;;;;;;;;;;;;;;10.78;100.00;95743.25;5039557;28;19983;-82
2023/05/21 04:16:37;;;;;;;;;;;;;;;10.76;100.00;95758.88;5048287;28;20038;-83
2023/05/21 04:19:04;;;;;;;;;;;;;;;10.77;100.00;95759.69;5030343;28;19930;-82
2023/05/21 04:21:31;;;;;;;;;;;;;;;10.79;100.00;95757.56;5044832;28;19936;-83
2023/05/21 04:23:59;;;;;;;;;;;;;;;10.83;100.00;95754.09;5056047;28;19964;-83
2023/05/21 04:27:08;;;;;;;;;;;;;;;10.80;100.00;95754.59;5011119;28;19933;-84
2023/05/21 04:29:36;;;;;;;;;;;;;;;10.81;100.00;95758.09;5044526;28;19932;-83
2023/05/21 04:32:03;;;;;;;;;;;;;;;10.82;100.00;95762.44;5022755;28;20032;-84
2023/05/21 04:34:32;;;;;;;;;;;;;;;10.77;100.00;95767.78;5021754;28;19931;-83
2023/05/21 04:36:59;;;;;;;;;;;;;;;10.78;100.00;95764.03;5023384;28;19936;-83
2023/05/21 04:39:27;;;;;;;;;;;;;;;10.79;100.00;95768.38;5025388;28;19929;-83
2023/05/21 04:41:55;;;;;;;;;;;;;;;10.80;100.00;95775.41;5016719;28;19929;-83
2023/05/21 04:44:23;;;;;;;;;;;;;;;10.81;100.00;95779.72;5023197;28;20068;-82
2023/05/21 04:46:51;;;;;;;;;;;;;;;10.83;100.00;95777.59;5022318;28;20055;-83
2023/05/21 04:49:19;;;;;;;;;;;;;;;10.84;100.00;95777.34;5024598;28;19925;-82
2023/05/21 04:51:48;;;;;;;;;;;;;;;10.87;100.00;95776.88;5040881;28;19979;-83
2023/05/21 04:54:15;;;;;;;;;;;;;;;10.87;100.00;95774.19;5020525;28;19926;-83
2023/05/21 04:56:41;;;;;;;;;;;;;;;10.89;100.00;95782.00;5045764;28;20019;-82
2023/05/21 04:59:08;;;;;;;;;;;;;;;10.90;100.00;95781.75;5022056;28;19987;-83
2023/05/21 05:01:37;;;;;;;;;;;;;;;10.91;100.00;95778.00;5023623;28;19950;-83
2023/05/21 05:04:04;;;;;;;;;;;;;;;10.93;100.00;95781.28;5040310;28;19933;-82
2023/05/21 05:06:31;;;;;;;;;;;;;;;10.97;100.00;95782.41;5022497;28;19929;-82
2023/05/21 05:08:58;;;;;;;;;;;;;;;10.99;100.00;95787.56;5043288;28;19929;-81
2023/05/21 05:11:25;;;;;;;;;;;;;;;11.00;100.00;95789.22;5021238;28;19932;-83
2023/05/21 05:13:52;;;;;;;;;;;;;;;11.05;100.00;95781.22;5026751;28;19925;-83
2023/05/21 05:16:23;;;;;;;;;;;;;;;11.09;100.00;95776.94;5039716;28;19933;-82
2023/05/21 05:18:52;;;;;;;;;;;;;;;11.12;100.00;95787.25;5024014;28;20016;-83
2023/05/21 05:21:19;;;;;;;;;;;;;;;11.15;100.00;95784.03;5015560;28;19979;-83
2023/05/21 05:23:46;;;;;;;;;;;;;;;11.20;100.00;95776.03;5039536;28;19932;-83
2023/05/21 05:26:12;;;;;;;;;;;;;;;11.25;100.00;95780.66;5022699;28;19936;-83
2023/05/21 05:28:39;;;;;;;;;;;;;;;11.30;100.00;95783.47;5022647;28;19955;-83
2023/05/21 05:31:06;;;;;;;;;;;;;;;11.38;100.00;95781.16;5034636;28;19932;-83
2023/05/21 05:33:33;;;;;;;;;;;;;;;11.43;100.00;95780.41;5039858;28;19929;-83
2023/05/21 05:36:01;;;;;;;;;;;;;;;11.45;100.00;95780.16;5041061;28;19991;-83
2023/05/21 05:38:28;;;;;;;;;;;;;;;11.44;100.00;95779.34;5022949;28;19926;-82
2023/05/21 05:40:55;;;;;;;;;;;;;;;11.47;100.00;95778.84;5019934;28;19956;-83
2023/05/21 05:43:21;;;;;;;;;;;;;;;11.52;100.00;95772.69;5020543;28;19925;-83
2023/05/21 05:45:48;;;;;;;;;;;;;;;11.54;100.00;95781.38;5041651;28;19936;-83
2023/05/21 05:48:17;;;;;;;;;;;;;;;11.58;100.00;95777.88;5041446;28;20003;-83
2023/05/21 05:50:45;;;;;;;;;;;;;;;11.67;100.00;95780.97;5020570;28;19932;-83
2023/05/21 05:53:13;;;;;;;;;;;;;;;11.69;100.00;95776.97;5022797;28;19929;-83
2023/05/21 05:55:41;;;;;;;;;;;;;;;11.77;100.00;95775.75;5017906;28;19964;-82
2023/05/21 05:58:07;;;;;;;;;;;;;;;11.83;100.00;95765.78;5036087;28;19935;-83
2023/05/21 06:00:46;;;;;;;;;;;;;;;11.89;100.00;95770.22;5018527;28;19933;-83
2023/05/21 06:03:13;;;;;;;;;;;;;;;11.95;100.00;95767.31;5032645;28;19925;-83
2023/05/21 06:05:41;;;;;;;;;;;;;;;12.03;100.00;95761.44;5026854;28;19925;-83
2023/05/21 06:08:08;;;;;;;;;;;;;;;12.12;100.00;95768.03;5020000;28;20013;-83
2023/05/21 06:10:36;;;;;;;;;;;;;;;12.20;100.00;95765.94;5004276;28;19933;-83
2023/05/21 06:13:03;;;;;;;;;;;;;;;12.27;100.00;95769.28;5001730;28;19964;-83
2023/05/21 06:15:31;;;;;;;;;;;;;;;12.35;100.00;95769.63;5026065;28;19960;-83
2023/05/21 06:17:57;;;;;;;;;;;;;;;12.44;100.00;95772.69;5010098;28;19932;-83
2023/05/21 06:20:24;;;;;;;;;;;;;;;12.44;100.00;95776.22;5009055;28;19929;-83
2023/05/21 06:22:51;;;;;;;;;;;;;;;12.50;100.00;95774.41;5004144;28;19931;-83
2023/05/21 06:25:18;;;;;;;;;;;;;;;12.51;100.00;95778.72;5002257;28;19925;-84
2023/05/21 06:27:47;;;;;;;;;;;;;;;12.57;100.00;95766.88;5022014;28;19933;-83
2023/05/21 06:30:20;;;;;;;;;;;;;;;12.59;100.00;95778.25;5005917;28;19933;-83
2023/05/21 06:32:47;;;;;;;;;;;;;;;12.63;100.00;95779.38;5010622;28;19925;-83
2023/05/21 06:35:15;;;;;;;;;;;;;;;12.69;100.00;95778.34;5007671;28;19932;-83
2023/05/21 06:37:42;;;;;;;;;;;;;;;12.75;100.00;95774.63;5009123;28;19925;-83
2023/05/21 06:40:10;;;;;;;;;;;;;;;12.84;100.00;95783.13;5007921;28;19925;-83
2023/05/21 06:42:37;;;;;;;;;;;;;;;12.85;100.00;95785.53;4998900;28;20020;-83
2023/05/21 06:45:28;;;;;;;;;;;;;;;12.85;100.00;95780.13;5026270;28;20043;-83
2023/05/21 06:47:59;;;;;;;;;;;;;;;12.93;100.00;95788.88;5010497;28;20015;-84
2023/05/21 06:50:26;;;;;;;;;;;;;;;12.93;100.00;95791.59;5032451;28;19925;-83
2023/05/21 06:52:53;;;;;;;;;;;;;;;12.94;100.00;95782.34;5029366;28;19925;-82
2023/05/21 06:55:20;;;;;;;;;;;;;;;12.96;100.00;95785.63;5013191;28;19934;-83
2023/05/21 06:58:29;;;;;;;;;;;;;;;13.03;100.00;95783.50;5019207;28;19932;-84
2023/05/21 07:00:58;;;;;;;;;;;;;;;13.05;100.00;95793.03;5022914;28;19940;-84
2023/05/21 07:03:25;;;;;;;;;;;;;;;13.10;100.00;95787.63;5031868;28;19968;-83
2023/05/21 07:05:53;;;;;;;;;;;;;;;13.13;100.00;95779.03;5024304;28;20068;-82
2023/05/21 07:08:21;;;;;;;;;;;;;;;13.19;100.00;95777.16;5039250;28;19948;-83
2023/05/21 07:10:48;;;;;;;;;;;;;;;13.35;100.00;95784.34;5025980;28;19976;-83
2023/05/21 07:13:15;;;;;;;;;;;;;;;13.54;100.00;95788.25;5016390;28;19925;-83
2023/05/21 07:15:42;;;;;;;;;;;;;;;13.72;100.00;95783.47;5026555;28;19929;-83
2023/05/21 07:18:10;;;;;;;;;;;;;;;13.89;100.00;95789.50;5044381;28;19934;-84
2023/05/21 07:20:38;;;;;;;;;;;;;;;14.01;100.00;95798.25;5028680;28;19925;-84
2023/05/21 07:23:07;;;;;;;;;;;;;;;14.13;100.00;95793.41;5045644;28;19932;-85
2023/05/21 07:25:33;;;;;;;;;;;;;;;14.16;100.00;95789.34;5044997;28;20019;-83
2023/05/21 07:28:00;;;;;;;;;;;;;;;14.23;100.00;95787.19;5028570;28;19992;-84
2023/05/21 07:30:27;;;;;;;;;;;;;;;14.22;100.00;95799.97;5033770;28;19937;-83
2023/05/21 07:32:54;;;;;;;;;;;;;;;14.23;100.00;95796.16;5028197;28;19933;-83
2023/05/21 07:35:22;;;;;;;;;;;;;;;14.24;100.00;95795.09;5020030;28;19926;-84
2023/05/21 07:37:49;;;;;;;;;;;;;;;14.17;100.00;95786.38;5030985;28;19925;-84
2023/05/21 07:40:16;;;;;;;;;;;;;;;14.18;100.00;95793.44;5029931;28;19932;-84
2023/05/21 07:42:43;;;;;;;;;;;;;;;14.20;100.00;95791.28;5027958;28;19925;-84
2023/05/21 07:45:12;;;;;;;;;;;;;;;14.23;100.00;95793.44;5045623;28;19968;-84
2023/05/21 07:47:42;;;;;;;;;;;;;;;14.28;100.00;95793.47;5026622;28;19925;-84
2023/05/21 07:50:10;;;;;;;;;;;;;;;14.37;100.00;95794.56;5029605;28;19939;-84
2023/05/21 07:52:38;;;;;;;;;;;;;;;14.44;100.00;95785.41;5034053;28;19959;-84
2023/05/21 07:55:06;;;;;;;;;;;;;;;14.42;100.00;95784.84;5034982;28;19925;-84
2023/05/21 07:57:35;;;;;;;;;;;;;;;14.45;100.00;95793.28;5027170;28;19926;-84
2023/05/21 08:00:09;;;;;;;;;;;;;;;14.55;100.00;95790.56;5034742;28;19980;-84
2023/05/21 08:02:41;;;;;;;;;;;;;;;14.58;100.00;95797.38;5028989;28;19925;-84
2023/05/21 08:05:10;;;;;;;;;;;;;;;14.63;100.00;95795.47;5022378;28;19926;-84
2023/05/21 08:07:38;;;;;;;;;;;;;;;14.68;100.00;95791.97;5032827;28;19941;-84
2023/05/21 08:10:06;;;;;;;;;;;;;;;14.80;100.00;95800.66;5036367;28;19971;-84
2023/05/21 08:12:33;;;;;;;;;;;;;;;14.86;100.00;95791.44;5025143;28;19943;-84
2023/05/21 08:15:00;;;;;;;;;;;;;;;14.97;100.00;95795.78;5045961;28;19964;-84
2023/05/21 08:17:27;;;;;;;;;;;;;;;15.12;100.00;95800.44;5025772;28;19925;-84
2023/05/21 08:19:54;;;;;;;;;;;;;;;15.20;100.00;95809.94;5024598;28;19925;-84
2023/05/21 08:22:21;;;;;;;;;;;;;;;15.27;100.00;95805.03;5043517;28;19932;-84
2023/05/21 08:24:49;;;;;;;;;;;;;;;15.27;100.00;95810.47;5026134;28;19925;-84
2023/05/21 08:27:16;;;;;;;;;;;;;;;15.37;100.00;95794.97;5026909;28;19925;-83
2023/05/21 08:29:43;;;;;;;;;;;;;;;15.47;100.00;95810.47;5043237;28;19929;-84
2023/05/21 08:32:10;;;;;;;;;;;;;;;15.68;100.00;95808.56;5036257;28;19925;-84
2023/05/21 08:34:37;;;;;;;;;;;;;;;15.81;100.00;95818.88;5019754;28;19926;-84
2023/05/21 08:37:31;;;;;;;;;;;;;;;15.94;100.00;95817.47;5011712;28;19940;-84
2023/05/21 08:40:05;;;;;;;;;;;;;;;16.04;100.00;95810.09;5027197;28;20024;-84
2023/05/21 08:42:40;;;;;;;;;;;;;;;16.12;100.00;95816.88;5026603;28;19925;-84
2023/05/21 08:45:11;;;;;;;;;;;;;;;16.12;100.00;95814.16;5025480;28;19993;-84
2023/05/21 08:47:40;;;;;;;;;;;;;;;16.17;100.00;95819.56;5020916;28;19931;-84
2023/05/21 08:50:09;;;;;;;;;;;;;;;16.25;100.00;95821.72;5027611;28;19932;-84
2023/05/21 08:52:37;;;;;;;;;;;;;;;16.38;100.00;95815.69;5039275;28;20015;-85
2023/05/21 08:55:07;;;;;;;;;;;;;;;16.46;100.00;95809.66;5027197;28;19933;-84
2023/05/21 08:57:34;;;;;;;;;;;;;;;16.49;100.00;95808.28;5015080;28;19926;-84
2023/05/21 09:00:03;;;;;;;;;;;;;;;16.62;100.00;95796.78;5026167;28;19929;-84
2023/05/21 09:02:33;;;;;;;;;;;;;;;16.66;100.00;95805.22;5027101;28;19929;-84
2023/05/21 09:05:02;;;;;;;;;;;;;;;16.83;100.00;95805.66;5022870;28;19929;-84
2023/05/21 09:07:30;;;;;;;;;;;;;;;16.96;100.00;95800.38;5040923;28;19925;-84
2023/05/21 09:10:18;;;;;;;;;;;;;;;16.96;100.00;95802.28;5039139;28;19965;-84
2023/05/21 09:12:47;;;;;;;;;;;;;;;17.08;100.00;95799.22;5038148;28;19926;-83
2023/05/21 09:15:13;;;;;;;;;;;;;;;17.12;100.00;95798.34;5023136;28;19968;-83
2023/05/21 09:17:41;;;;;;;;;;;;;;;17.15;100.00;95802.41;5025609;28;19925;-83
2023/05/21 09:20:28;;;;;;;;;;;;;;;17.24;100.00;95807.00;5021831;28;19932;-84
2023/05/21 09:23:02;;;;;;;;;;;;;;;17.21;100.00;95791.19;5020224;28;19925;-83
2023/05/21 09:25:31;;;;;;;;;;;;;;;17.23;100.00;95796.34;5027249;28;19925;-84
2023/05/21 09:28:04;;;;;;;;;;;;;;;17.30;100.00;95796.84;5035043;28;19931;-84
2023/05/21 09:30:31;;;;;;;;;;;;;;;17.40;100.00;95805.75;5020662;28;19937;-84
2023/05/21 09:33:00;;;;;;;;;;;;;;;17.49;100.00;95803.22;5037913;28;19932;-84
2023/05/21 09:35:27;;;;;;;;;;;;;;;17.78;100.00;95801.31;5021890;28;19924;-84
2023/05/21 09:37:53;;;;;;;;;;;;;;;17.99;100.00;95821.03;5043333;28;19936;-84
2023/05/21 09:40:21;;;;;;;;;;;;;;;18.14;100.00;95804.47;5029006;28;19925;-84
2023/05/21 09:42:50;;;;;;;;;;;;;;;18.37;100.00;95799.31;5015643;28;20025;-84
2023/05/21 09:45:20;;;;;;;;;;;;;;;18.43;100.00;95806.31;5042067;28;19933;-85
2023/05/21 09:47:48;;;;;;;;;;;;;;;18.31;100.00;95797.72;5040514;28;19925;-84
2023/05/21 09:50:18;;;;;;;;;;;;;;;18.36;100.00;95792.19;5022322;28;19925;-84
2023/05/21 09:52:45;;;;;;;;;;;;;;;18.46;100.00;95801.06;5026666;28;19933;-84
2023/05/21 09:55:12;;;;;;;;;;;;;;;18.70;100.00;95795.59;5043734;28;19933;-84
2023/05/21 09:57:43;;;;;;;;;;;;;;;18.84;100.00;95785.53;5029236;28;20015;-84
2023/05/21 10:00:17;;;;;;;;;;;;;;;19.11;100.00;95795.00;5040255;28;19925;-82
2023/05/21 10:02:45;;;;;;;;;;;;;;;19.40;100.00;95787.38;5038382;28;20040;-83
2023/05/21 10:05:13;;;;;;;;;;;;;;;19.51;100.00;95799.00;5026698;28;19925;-84
2023/05/21 10:07:41;;;;;;;;;;;;;;;19.75;100.00;95787.91;5044090;28;19980;-84
2023/05/21 10:10:11;;;;;;;;;;;;;;;19.99;100.00;95777.56;5029126;28;19925;-83
2023/05/21 10:12:40;;;;;;;;;;;;;;;20.20;100.00;95783.47;5029285;28;20016;-83
2023/05/21 10:15:09;;;;;;;;;;;;;;;20.13;100.00;95789.38;5026390;28;19932;-84
2023/05/21 10:17:38;;;;;;;;;;;;;;;20.17;100.00;95776.66;5021940;28;19975;-84
2023/05/21 10:20:06;;;;;;;;;;;;;;;20.26;100.00;95776.78;5024880;28;19932;-83
2023/05/21 10:22:33;;;;;;;;;;;;;;;20.39;100.00;95779.56;5015791;28;19947;-84
2023/05/21 10:25:02;;;;;;;;;;;;;;;20.55;100.00;95774.56;5024371;28;19929;-84
2023/05/21 10:27:31;;;;;;;;;;;;;;;20.42;100.00;95777.28;5017218;28;19933;-84
2023/05/21 10:29:59;;;;;;;;;;;;;;;20.48;100.00;95759.63;5024167;28;19947;-83
2023/05/21 10:32:26;;;;;;;;;;;;;;;20.74;100.00;95761.50;5022232;28;19959;-84
2023/05/21 10:34:54;;;;;;;;;;;;;;;20.75;100.00;95756.84;5041250;28;19931;-84
2023/05/21 10:37:23;;;;;;;;;;;;;;;20.87;100.00;95750.78;5021907;28;19925;-84
2023/05/21 10:39:50;;;;;;;;;;;;;;;20.75;100.00;95762.31;5044895;28;19951;-84
2023/05/21 10:42:21;;;;;;;;;;;;;;;21.01;100.00;95755.09;5025570;28;19926;-84
2023/05/21 10:45:05;;;;;;;;;;;;;;;21.90;61.66;95733.06;5025818;28;19925;-84
2023/05/21 10:48:03;;;;;;;;;;;;;;;23.17;53.12;95748.59;5025027;28;19969;-84
2023/05/21 10:50:38;;;;;;;;;;;;;;;23.96;51.44;95745.38;4957970;28;20008;-84
2023/05/21 10:53:11;;;;;;;;;;;;;;;24.38;47.21;95753.81;5016069;28;20227;-84
2023/05/21 10:55:46;;;;;;;;;;;;;;;24.62;45.88;95737.44;5022854;28;19972;-84
2023/05/21 10:58:28;;;;;;;;;;;;;;;24.83;45.17;95732.75;5035694;28;20027;-84
2023/05/21 11:00:56;;;;;;;;;;;;;;;25.14;43.19;95740.66;5013577;28;19929;-84
2023/05/21 11:03:23;;;;;;;;;;;;;;;25.28;42.53;95732.09;5025248;28;19933;-84
2023/05/21 11:05:56;;;;;;;;;;;;;;;25.24;40.64;95722.88;5038457;28;19948;-85
2023/05/21 11:08:23;;;;;;;;;;;;;;;25.02;39.22;95720.44;5040907;28;19929;-84
2023/05/21 11:10:53;;;;;;;;;;;;;;;25.00;42.03;95718.03;5043996;28;19932;-85
2023/05/21 11:13:20;;;;;;;;;;;;;;;24.86;41.42;95721.03;5026336;28;19933;-85
2023/05/21 11:16:05;;;;;;;;;;;;;;;24.99;41.65;95723.91;5024960;28;19960;-84
2023/05/21 11:18:53;;;;;;;;;;;;;;;24.92;40.38;95718.13;5042282;28;19926;-85
2023/05/21 11:21:25;;;;;;;;;;;;;;;24.95;41.75;95704.41;5023880;28;19971;-84
2023/05/21 11:23:52;;;;;;;;;;;;;;;24.83;40.18;95715.38;5023340;28;19925;-85
2023/05/21 11:26:20;;;;;;;;;;;;;;;24.89;38.76;95712.09;5024838;28;19925;-84
2023/05/21 11:28:51;;;;;;;;;;;;;;;25.12;39.43;95700.69;5040366;28;19929;-85
2023/05/21 11:31:24;;;;;;;;;;;;;;;25.42;40.22;95706.94;5029033;28;19925;-85
2023/05/21 11:34:06;;;;;;;;;;;;;;;25.39;38.29;95702.88;5046341;28;19925;-84
2023/05/21 11:36:34;;;;;;;;;;;;;;;25.47;37.45;95692.88;5028331;28;19925;-84
2023/05/21 11:39:11;;;;;;;;;;;;;;;25.58;38.67;95694.88;5030580;28;19936;-85
2023/05/21 11:41:57;;;;;;;;;;;;;;;25.84;39.15;95682.75;5024089;28;19948;-85
2023/05/21 11:44:40;;;;;;;;;;;;;;;25.90;37.03;95692.44;5023114;28;19931;-84
2023/05/21 11:47:08;;;;;;;;;;;;;;;26.02;37.37;95692.47;5040769;28;20016;-83
2023/05/21 11:49:35;;;;;;;;;;;;;;;25.93;37.54;95684.28;5029224;28;19940;-81
2023/05/21 11:52:04;;;;;;;;;;;;;;;26.00;37.00;95681.72;5029216;28;19932;-84
2023/05/21 11:54:32;;;;;;;;;;;;;;;26.17;38.77;95686.22;5029157;28;19935;-83
2023/05/21 11:57:00;;;;;;;;;;;;;;;25.97;35.28;95681.59;5026842;28;19987;-82
2023/05/21 11:59:27;;;;;;;;;;;;;;;25.83;37.01;95664.53;5022593;28;19979;-83
2023/05/21 12:01:54;;;;;;;;;;;;;;;26.08;36.21;95665.38;5027824;28;19929;-82
2023/05/21 12:04:21;;;;;;;;;;;;;;;26.18;37.12;95678.75;5030650;28;19925;-83
2023/05/21 12:06:49;;;;;;;;;;;;;;;26.16;35.39;95668.00;5030674;28;19925;-84
2023/05/21 12:09:17;;;;;;;;;;;;;;;26.19;35.36;95672.88;5029321;28;19936;-83
2023/05/21 12:11:44;;;;;;;;;;;;;;;26.34;36.36;95680.50;5042363;28;19926;-83
2023/05/21 12:14:11;;;;;;;;;;;;;;;26.60;34.82;95671.00;5016260;28;19925;-83
2023/05/21 12:16:39;;;;;;;;;;;;;;;26.60;34.75;95671.00;5031373;28;19931;-83
2023/05/21 12:19:05;;;;;;;;;;;;;;;26.69;33.66;95674.44;5034477;28;20013;-83
2023/05/21 12:21:33;;;;;;;;;;;;;;;26.47;34.33;95683.22;5018981;28;19925;-83
2023/05/21 12:23:59;;;;;;;;;;;;;;;26.17;34.34;95674.34;5023062;28;19925;-83
2023/05/21 12:26:28;;;;;;;;;;;;;;;25.89;35.50;95674.22;5024460;28;19987;-83
2023/05/21 12:28:55;;;;;;;;;;;;;;;26.03;36.17;95674.69;5025541;28;19925;-83
2023/05/21 12:31:23;;;;;;;;;;;;;;;26.03;35.77;95671.13;5040753;28;19995;-83
2023/05/21 12:33:51;;;;;;;;;;;;;;;25.96;34.73;95674.44;5026892;28;19929;-83
2023/05/21 12:36:26;;;;;;;;;;;;;;;25.87;35.04;95670.97;5042550;28;19936;-83
2023/05/21 12:38:53;;;;;;;;;;;;;;;26.26;35.64;95664.00;5016857;28;19925;-83
2023/05/21 12:41:20;;;;;;;;;;;;;;;26.46;35.71;95659.47;5024912;28;19937;-84
2023/05/21 12:43:48;;;;;;;;;;;;;;;26.78;35.50;95666.81;5017084;28;20086;-83
2023/05/21 12:46:16;;;;;;;;;;;;;;;26.88;34.51;95671.84;5030274;28;20020;-84
2023/05/21 12:48:48;;;;;;;;;;;;;;;26.73;34.99;95670.63;5039162;28;19928;-83